Time;durP1;ratioP1;P1;durP2;ratioP2;P2;SDS_P1;SDS_P2;PMS_P1;PMS_P2;Temp;Humidity;BMP_temperature;BMP_pressure;BME280_temperature;BME280_humidity;BME280_pressure;Samples;Min_cycle;Max_cycle;Signal;HPM_P1;HPM_P2
2024/03/14 00:01:50;;;;;;;;;0.00;0.00;;;;;15.29;100.00;101324.63;6308592;22;45176;-83
2024/03/14 00:04:15;;;;;;;;;0.00;0.00;;;;;15.06;100.00;101322.03;6307969;22;45278;-81
2024/03/14 00:06:46;;;;;;;;;0.00;0.00;;;;;15.17;100.00;101322.47;6305428;22;45068;-82
2024/03/14 00:09:12;;;;;;;;;0.00;0.00;;;;;15.18;100.00;101321.56;6279667;22;45267;-83
2024/03/14 00:11:37;;;;;;;;;0.00;0.00;;;;;15.14;100.00;101319.13;6306097;22;45415;-83
2024/03/14 00:14:03;;;;;;;;;0.00;0.00;;;;;15.09;100.00;101319.28;6304386;22;45088;-83
2024/03/14 00:16:28;;;;;;;;;0.00;0.00;;;;;15.05;100.00;101313.31;6305954;22;44986;-83
2024/03/14 00:18:53;;;;;;;;;0.00;0.00;;;;;15.04;100.00;101301.13;6276229;22;45339;-82
2024/03/14 00:21:20;;;;;;;;;0.00;0.00;;;;;15.05;100.00;101310.69;6275923;22;65708;-83
2024/03/14 00:23:46;;;;;;;;;0.00;0.00;;;;;14.99;100.00;101310.94;6276777;22;45282;-82
2024/03/14 00:26:12;;;;;;;;;0.00;0.00;;;;;14.93;100.00;101305.91;6304850;22;45257;-81
2024/03/14 00:28:39;;;;;;;;;0.00;0.00;;;;;14.90;100.00;101306.88;6304926;22;45324;-82
2024/03/14 00:31:04;;;;;;;;;0.00;0.00;;;;;15.04;100.00;101306.38;6304364;22;46835;-83
2024/03/14 00:33:32;;;;;;;;;0.00;0.00;;;;;15.16;100.00;101299.78;6280927;22;44588;-82
2024/03/14 00:35:58;;;;;;;;;0.00;0.00;;;;;15.14;100.00;101299.00;6304958;22;45076;-83
2024/03/14 00:38:24;;;;;;;;;0.00;0.00;;;;;15.13;100.00;101301.69;6276339;22;45343;-83
2024/03/14 00:40:49;;;;;;;;;0.00;0.00;;;;;15.07;100.00;101300.16;6276348;22;63089;-83
2024/03/14 00:43:14;;;;;;;;;0.00;0.00;;;;;15.02;100.00;101297.69;6304405;22;52727;-83
2024/03/14 00:45:40;;;;;;;;;0.00;0.00;;;;;15.01;100.00;101301.25;6276758;22;50480;-82
2024/03/14 00:48:07;;;;;;;;;0.00;0.00;;;;;14.91;100.00;101289.38;6304229;22;62058;-83
2024/03/14 00:50:35;;;;;;;;;0.00;0.00;;;;;14.88;100.00;101290.38;6277063;22;45628;-82
2024/03/14 00:53:02;;;;;;;;;0.00;0.00;;;;;14.88;100.00;101294.75;6303124;22;45254;-82
2024/03/14 00:55:28;;;;;;;;;0.00;0.00;;;;;14.82;100.00;101287.09;6304966;22;45026;-83
2024/03/14 00:57:54;;;;;;;;;0.00;0.00;;;;;14.78;100.00;101289.00;6304689;22;45394;-82
2024/03/14 01:00:23;;;;;;;;;0.00;0.00;;;;;14.73;100.00;101288.34;6277064;22;45304;-82
2024/03/14 01:02:53;;;;;;;;;0.00;0.00;;;;;14.72;100.00;101281.38;6276545;22;45264;-82
2024/03/14 01:05:20;;;;;;;;;0.00;0.00;;;;;14.70;100.00;101277.97;6305574;22;45210;-82
2024/03/14 01:07:46;;;;;;;;;0.00;0.00;;;;;14.70;100.00;101275.34;6303799;22;45484;-82
2024/03/14 01:10:12;;;;;;;;;0.00;0.00;;;;;14.66;100.00;101273.75;6275786;22;46094;-82
2024/03/14 01:12:38;;;;;;;;;0.00;0.00;;;;;14.65;100.00;101272.91;6304044;22;45334;-82
2024/03/14 01:15:06;;;;;;;;;0.00;0.00;;;;;14.58;100.00;101267.94;6276902;22;45208;-82
2024/03/14 01:17:31;;;;;;;;;0.00;0.00;;;;;14.55;100.00;101255.78;6304113;22;45191;-82
2024/03/14 01:19:56;;;;;;;;;0.00;0.00;;;;;14.53;100.00;101258.44;6303934;22;45329;-83
2024/03/14 01:22:22;;;;;;;;;0.00;0.00;;;;;14.52;100.00;101254.13;6249722;22;48595;-83
2024/03/14 01:24:48;;;;;;;;;0.00;0.00;;;;;14.23;100.00;101251.72;6305180;22;45192;-83
2024/03/14 01:27:18;;;;;;;;;0.75;0.75;;;;;14.18;100.00;101251.88;6279054;22;45318;-83
2024/03/14 01:29:45;;;;;;;;;0.00;0.00;;;;;14.38;100.00;101256.41;6305452;22;46130;-82
2024/03/14 01:32:11;;;;;;;;;0.00;0.00;;;;;14.22;100.00;101253.47;6304830;22;45438;-83
2024/03/14 01:34:36;;;;;;;;;0.00;0.00;;;;;14.13;100.00;101257.28;6305416;22;45348;-82
2024/03/14 01:37:10;;;;;;;;;0.00;0.00;;;;;14.08;100.00;101242.66;6251696;22;45476;-82
2024/03/14 01:39:36;;;;;;;;;0.00;0.00;;;;;14.07;100.00;101240.94;6305600;22;45390;-82
2024/03/14 01:42:06;;;;;;;;;0.00;0.00;;;;;14.03;100.00;101244.56;6305289;22;45231;-83
2024/03/14 01:45:25;;;;;;;;;0.00;0.00;;;;;14.03;100.00;101241.97;6305675;22;45082;-82
2024/03/14 01:47:51;;;;;;;;;0.00;0.00;;;;;13.97;100.00;101235.19;6154899;23;45381;-83
2024/03/14 01:50:16;;;;;;;;;0.00;0.00;;;;;13.96;100.00;101233.47;6179918;23;46033;-82
2024/03/14 01:52:45;;;;;;;;;0.00;0.00;;;;;13.92;100.00;101235.31;6179932;23;45249;-83
2024/03/14 01:55:11;;;;;;;;;0.00;0.00;;;;;13.89;100.00;101229.34;6155124;23;45257;-83
2024/03/14 01:57:37;;;;;;;;;0.00;0.00;;;;;13.89;100.00;101230.22;6179878;23;45272;-82
2024/03/14 02:00:11;;;;;;;;;0.00;0.00;;;;;13.84;100.00;101226.06;6154454;23;46267;-83
2024/03/14 02:02:36;;;;;;;;;0.00;0.00;;;;;13.83;100.00;101227.78;6181230;23;45297;-83
2024/03/14 02:05:10;;;;;;;;;0.00;0.00;;;;;13.80;100.00;101233.16;6153830;23;45246;-83
2024/03/14 02:07:37;;;;;;;;;0.00;0.00;;;;;13.91;100.00;101220.53;6154079;23;45467;-82
2024/03/14 02:10:04;;;;;;;;;0.00;0.00;;;;;13.86;100.00;101222.47;6179693;23;45512;-83
2024/03/14 02:12:29;;;;;;;;;0.00;0.00;;;;;14.09;100.00;101211.16;6154528;23;45226;-82
2024/03/14 02:14:55;;;;;;;;;0.00;0.00;;;;;14.12;100.00;101213.69;6179835;23;45237;-84
2024/03/14 02:17:20;;;;;;;;;0.00;0.00;;;;;14.15;100.00;101210.09;6179596;23;45300;-83
2024/03/14 02:19:46;;;;;;;;;0.00;0.00;;;;;14.13;100.00;101209.28;6179493;23;46149;-83
2024/03/14 02:22:19;;;;;;;;;0.00;0.00;;;;;14.16;100.00;101198.72;6154959;23;45327;-82
2024/03/14 02:24:44;;;;;;;;;0.00;0.00;;;;;14.12;100.00;101207.59;6305377;22;45271;-82
2024/03/14 02:27:10;;;;;;;;;0.00;0.00;;;;;14.13;100.00;101199.69;6305326;22;45507;-82
2024/03/14 02:29:35;;;;;;;;;0.75;0.75;;;;;14.18;100.00;101196.91;6304917;22;50022;-83
2024/03/14 02:32:00;;;;;;;;;0.00;0.00;;;;;14.26;100.00;101194.88;6305527;22;52513;-83
2024/03/14 02:34:26;;;;;;;;;0.00;0.00;;;;;14.29;100.00;101199.13;6304269;22;45144;-83
2024/03/14 02:36:51;;;;;;;;;0.00;0.00;;;;;14.33;100.00;101179.75;6304037;22;63746;-82
2024/03/14 02:39:22;;;;;;;;;0.00;0.00;;;;;14.21;100.00;101178.47;6305152;22;46330;-82
2024/03/14 02:41:47;;;;;;;;;0.00;0.00;;;;;14.22;100.00;101179.31;6305191;22;45337;-82
2024/03/14 02:44:17;;;;;;;;;0.00;0.00;;;;;14.23;100.00;101178.41;6305721;22;45160;-82
2024/03/14 02:46:43;;;;;;;;;0.00;0.00;;;;;14.37;100.00;101183.13;6305578;22;45243;-82
2024/03/14 02:49:13;;;;;;;;;0.00;0.00;;;;;14.34;100.00;101181.47;6276161;22;46071;-82
2024/03/14 02:51:38;;;;;;;;;0.00;0.00;;;;;14.33;100.00;101177.16;6277941;22;45298;-83
2024/03/14 02:54:07;;;;;;;;;2.00;2.00;;;;;14.30;100.00;101172.00;6305194;22;45200;-83
2024/03/14 02:56:32;;;;;;;;;0.00;0.00;;;;;14.32;100.00;101172.84;6306564;22;45165;-83
2024/03/14 02:58:58;;;;;;;;;0.00;0.00;;;;;14.36;100.00;101171.81;6276204;22;47479;-82
2024/03/14 03:01:24;;;;;;;;;0.00;0.00;;;;;14.39;100.00;101160.34;6277775;22;45114;-82
2024/03/14 03:03:49;;;;;;;;;0.00;0.00;;;;;14.40;100.00;101168.16;6304614;22;45099;-83
2024/03/14 03:06:15;;;;;;;;;0.00;0.00;;;;;14.40;100.00;101164.69;6303956;22;61008;-81
2024/03/14 03:08:42;;;;;;;;;0.00;0.00;;;;;14.37;100.00;101163.00;6305016;22;45191;-80
2024/03/14 03:11:09;;;;;;;;;0.00;0.00;;;;;14.33;100.00;101158.81;6308082;22;45176;-83
2024/03/14 03:13:34;;;;;;;;;0.00;0.00;;;;;14.06;100.00;101161.56;6289425;22;45127;-82
2024/03/14 03:16:04;;;;;;;;;0.00;0.00;;;;;14.08;100.00;101151.88;6280636;22;45327;-83
2024/03/14 03:18:29;;;;;;;;;0.00;0.00;;;;;14.02;100.00;101156.47;6277529;22;46448;-83
2024/03/14 03:20:55;;;;;;;;;0.00;0.00;;;;;13.98;100.00;101149.66;6305027;22;45175;-83
2024/03/14 03:23:20;;;;;;;;;0.00;0.00;;;;;13.92;100.00;101148.97;6276513;22;55310;-83
2024/03/14 03:25:46;;;;;;;;;0.00;0.00;;;;;13.87;100.00;101143.06;6304741;22;45305;-82
2024/03/14 03:28:13;;;;;;;;;0.00;0.00;;;;;14.03;100.00;101145.97;6303933;22;63694;-83
2024/03/14 03:30:43;;;;;;;;;0.00;0.00;;;;;14.11;100.00;101143.94;6305520;22;45251;-82
2024/03/14 03:33:16;;;;;;;;;0.00;0.00;;;;;14.12;100.00;101147.38;6277444;22;45310;-83
2024/03/14 03:35:43;;;;;;;;;0.00;0.00;;;;;14.05;100.00;101143.28;6305206;22;45065;-82
2024/03/14 03:38:09;;;;;;;;;0.00;0.00;;;;;14.04;100.00;101136.34;6305209;22;45259;-82
2024/03/14 03:40:37;;;;;;;;;0.00;0.00;;;;;14.06;100.00;101135.38;6307110;22;45038;-82
2024/03/14 03:43:02;;;;;;;;;0.00;0.00;;;;;13.87;100.00;101142.19;6305072;22;45156;-83
2024/03/14 03:45:29;;;;;;;;;0.00;0.00;;;;;13.77;100.00;101146.91;6305697;22;45482;-82
2024/03/14 03:47:55;;;;;;;;;0.00;0.00;;;;;13.74;100.00;101141.78;6276035;22;46931;-83
2024/03/14 03:50:20;;;;;;;;;0.00;0.00;;;;;13.74;100.00;101134.81;6304387;22;45180;-83
2024/03/14 03:52:46;;;;;;;;;0.00;0.00;;;;;13.77;100.00;101140.81;6305218;22;45216;-82
2024/03/14 03:55:16;;;;;;;;;0.00;0.00;;;;;13.74;100.00;101139.16;6305138;22;45331;-82
2024/03/14 03:57:41;;;;;;;;;0.00;0.00;;;;;13.80;100.00;101131.09;6306027;22;45072;-83
2024/03/14 04:00:32;;;;;;;;;0.00;0.00;;;;;13.82;100.00;101129.28;6278966;22;44994;-83
2024/03/14 04:02:52;;;;;;;;;0.00;0.00;;;;;13.82;100.00;101125.78;6309340;22;44805;-83
2024/03/14 04:05:20;;;;;;;;;0.00;0.00;;;;;13.87;100.00;101126.50;6254197;22;44881;-83
2024/03/14 04:07:45;;;;;;;;;0.00;0.00;;;;;14.07;100.00;101123.13;6279501;22;45827;-82
2024/03/14 04:10:11;;;;;;;;;0.00;0.00;;;;;13.96;100.00;101118.31;6281023;22;44888;-83
2024/03/14 04:12:38;;;;;;;;;0.00;0.00;;;;;14.24;100.00;101120.72;6307123;22;45005;-82
2024/03/14 04:15:06;;;;;;;;;0.00;0.00;;;;;14.13;100.00;101110.69;6306651;22;44800;-82
2024/03/14 04:17:33;;;;;;;;;0.00;0.00;;;;;14.12;100.00;101105.50;6303849;22;45183;-83
2024/03/14 04:19:59;;;;;;;;;0.00;0.00;;;;;14.09;100.00;101106.44;6304778;22;45163;-83
2024/03/14 04:22:25;;;;;;;;;0.00;0.00;;;;;14.33;100.00;101109.91;6305109;22;45168;-83
2024/03/14 04:24:51;;;;;;;;;0.00;0.00;;;;;14.38;100.00;101094.03;6278219;22;45021;-83
2024/03/14 04:27:18;;;;;;;;;0.00;0.00;;;;;14.31;100.00;101092.56;6306365;22;46876;-83
2024/03/14 04:29:45;;;;;;;;;0.00;0.00;;;;;14.39;100.00;101089.63;6277269;22;45086;-83
2024/03/14 04:32:13;;;;;;;;;0.00;0.00;;;;;14.42;100.00;101076.44;6305010;22;44548;-82
2024/03/14 04:34:41;;;;;;;;;0.00;0.00;;;;;14.47;100.00;101084.97;6309100;22;44932;-83
2024/03/14 04:37:06;;;;;;;;;0.00;0.00;;;;;14.51;100.00;101078.69;6321302;22;44880;-82
2024/03/14 04:39:33;;;;;;;;;0.00;0.00;;;;;14.54;100.00;101078.53;6312804;22;44493;-82
2024/03/14 04:41:59;;;;;;;;;0.00;0.00;;;;;14.27;100.00;101088.34;6272702;22;43690;-82
2024/03/14 04:44:28;;;;;;;;;0.00;0.00;;;;;14.29;100.00;101089.16;6316315;22;44167;-83
2024/03/14 04:46:54;;;;;;;;;0.00;0.00;;;;;14.26;100.00;101077.03;6309649;22;44189;-83
2024/03/14 04:49:23;;;;;;;;;0.00;0.00;;;;;14.31;100.00;101089.94;6294821;22;44275;-82
2024/03/14 04:51:48;;;;;;;;;0.00;0.00;;;;;14.29;100.00;101081.28;6252134;22;45031;-82
2024/03/14 04:54:16;;;;;;;;;0.00;0.00;;;;;14.31;100.00;101079.47;6280529;22;44690;-82
2024/03/14 04:56:42;;;;;;;;;0.00;0.00;;;;;14.33;100.00;101077.63;6302224;22;45936;-82
2024/03/14 04:59:12;;;;;;;;;0.00;0.00;;;;;14.34;100.00;101079.34;6327790;22;62729;-83
2024/03/14 05:01:38;;;;;;;;;0.00;0.00;;;;;14.72;100.00;101071.75;6330990;22;42214;-82
2024/03/14 05:04:03;;;;;;;;;0.00;0.00;;;;;14.64;100.00;101072.06;6332871;22;42749;-81
2024/03/14 05:06:29;;;;;;;;;0.00;0.00;;;;;14.36;100.00;101069.66;6332904;22;37797;-82
2024/03/14 05:08:55;;;;;;;;;0.00;0.00;;;;;14.26;100.00;101068.31;6302723;22;38793;-82
2024/03/14 05:11:21;;;;;;;;;0.00;0.00;;;;;14.21;100.00;101073.75;6324786;22;43287;-82
2024/03/14 05:13:49;;;;;;;;;0.00;0.00;;;;;14.40;100.00;101076.47;6298903;22;42878;-82
2024/03/14 05:16:16;;;;;;;;;0.00;0.00;;;;;14.44;100.00;101077.22;6326517;22;44184;-82
2024/03/14 05:18:42;;;;;;;;;0.00;0.00;;;;;14.21;100.00;101078.97;6325507;22;43702;-82
2024/03/14 05:21:10;;;;;;;;;0.00;0.00;;;;;14.15;100.00;101084.44;6302264;22;40734;-83
2024/03/14 05:23:36;;;;;;;;;0.00;0.00;;;;;14.09;100.00;101075.03;6328141;22;38839;-83
2024/03/14 05:26:02;;;;;;;;;0.00;0.00;;;;;14.04;100.00;101077.00;6303124;22;31245;-82
2024/03/14 05:28:27;;;;;;;;;0.00;0.00;;;;;13.94;100.00;101081.72;6327158;22;42212;-83
2024/03/14 05:30:55;;;;;;;;;0.00;0.00;;;;;13.98;100.00;101081.59;6277603;22;40539;-82
2024/03/14 05:33:23;;;;;;;;;0.00;0.00;;;;;13.90;100.00;101081.91;6329046;22;38686;-82
2024/03/14 05:35:49;;;;;;;;;0.00;0.00;;;;;13.88;100.00;101084.56;6326837;22;39230;-82
2024/03/14 05:38:15;;;;;;;;;0.00;0.00;;;;;13.82;100.00;101073.47;6331603;22;30865;-82
2024/03/14 05:40:40;;;;;;;;;0.00;0.00;;;;;13.80;100.00;101073.53;6299906;22;40751;-82
2024/03/14 05:43:06;;;;;;;;;0.00;0.00;;;;;13.73;100.00;101074.69;6302013;22;53727;-83
2024/03/14 05:45:35;;;;;;;;;0.00;0.00;;;;;13.67;100.00;101080.09;6327608;22;39122;-83
2024/03/14 05:48:11;;;;;;;;;0.00;0.00;;;;;13.65;100.00;101076.69;6325855;22;40892;-82
2024/03/14 05:50:36;;;;;;;;;0.00;0.00;;;;;13.60;100.00;101076.88;6326689;22;43418;-83
2024/03/14 05:53:01;;;;;;;;;0.00;0.00;;;;;13.53;100.00;101072.78;6327338;22;37703;-81
2024/03/14 05:55:27;;;;;;;;;0.00;0.00;;;;;13.50;100.00;101065.03;6326971;22;44468;-82
2024/03/14 05:57:55;;;;;;;;;0.00;0.00;;;;;13.46;100.00;101077.34;6324927;22;43017;-82
2024/03/14 06:00:20;;;;;;;;;0.00;0.00;;;;;13.55;100.00;101069.19;6329949;22;39565;-82
2024/03/14 06:02:46;;;;;;;;;0.00;0.00;;;;;13.36;100.00;101062.91;6323932;22;43026;-82
2024/03/14 06:05:12;;;;;;;;;0.00;0.00;;;;;13.33;100.00;101068.25;6318192;22;44122;-82
2024/03/14 06:07:38;;;;;;;;;0.00;0.00;;;;;13.31;100.00;101063.06;6325138;22;40367;-82
2024/03/14 06:10:03;;;;;;;;;0.00;0.00;;;;;13.27;100.00;101060.59;6284985;22;43197;-81
2024/03/14 06:12:29;;;;;;;;;0.00;0.00;;;;;13.15;100.00;101067.97;6309005;22;44224;-82
2024/03/14 06:14:54;;;;;;;;;0.00;0.00;;;;;13.15;100.00;101072.34;6315434;22;44381;-82
2024/03/14 06:17:19;;;;;;;;;0.00;0.00;;;;;13.11;100.00;101068.97;6257474;22;60249;-82
2024/03/14 06:19:46;;;;;;;;;0.00;0.00;;;;;13.10;100.00;101074.25;6306317;22;47557;-83
2024/03/14 06:22:14;;;;;;;;;0.00;0.00;;;;;13.10;100.00;101067.25;6305760;22;44962;-82
2024/03/14 06:24:45;;;;;;;;;0.00;0.00;;;;;13.16;100.00;101063.56;6304926;22;45904;-82
2024/03/14 06:27:19;;;;;;;;;0.00;0.00;;;;;13.07;100.00;101058.66;6304456;22;45156;-83
2024/03/14 06:29:45;;;;;;;;;0.00;0.00;;;;;13.27;100.00;101061.44;6305579;22;45163;-82
2024/03/14 06:32:11;;;;;;;;;0.00;0.00;;;;;13.29;100.00;101057.00;6304453;22;45193;-81
2024/03/14 06:34:36;;;;;;;;;0.00;0.00;;;;;13.08;100.00;101058.63;6276316;22;45250;-82
2024/03/14 06:37:04;;;;;;;;;0.00;0.00;;;;;13.00;100.00;101058.03;6303981;22;57444;-81
2024/03/14 06:39:30;;;;;;;;;0.00;0.00;;;;;13.02;100.00;101060.56;6305404;22;45121;-83
2024/03/14 06:41:58;;;;;;;;;0.00;0.00;;;;;12.98;100.00;101047.63;6254588;22;45003;-83
2024/03/14 06:44:23;;;;;;;;;0.00;0.00;;;;;13.20;100.00;101051.25;6279270;22;44778;-82
2024/03/14 06:46:56;;;;;;;;;0.00;0.00;;;;;13.24;100.00;101047.63;6305729;22;44852;-85
2024/03/14 06:49:23;;;;;;;;;0.00;0.00;;;;;13.31;100.00;101046.53;6283697;22;45161;-82
2024/03/14 06:51:50;;;;;;;;;0.00;0.00;;;;;13.25;100.00;101044.97;6305961;22;44807;-83
2024/03/14 06:54:15;;;;;;;;;0.00;0.00;;;;;13.29;100.00;101035.25;6305864;22;46015;-82
2024/03/14 06:56:42;;;;;;;;;0.00;0.00;;;;;13.09;100.00;101049.00;6311303;22;44707;-83
2024/03/14 06:59:08;;;;;;;;;0.00;0.00;;;;;13.07;100.00;101040.38;6252380;22;44940;-81
2024/03/14 07:01:33;;;;;;;;;0.00;0.00;;;;;13.09;100.00;101041.16;6303058;22;58466;-82
2024/03/14 07:03:59;;;;;;;;;0.00;0.00;;;;;13.11;100.00;101045.47;6276722;22;45918;-82
2024/03/14 07:06:26;;;;;;;;;0.00;0.00;;;;;13.08;100.00;101040.31;6308015;22;45151;-81
2024/03/14 07:08:56;;;;;;;;;0.00;0.00;;;;;13.13;100.00;101040.16;6306170;22;44420;-82
2024/03/14 07:11:23;;;;;;;;;0.00;0.00;;;;;13.17;100.00;101034.78;6314430;22;44279;-82
2024/03/14 07:13:48;;;;;;;;;0.00;0.00;;;;;13.20;100.00;101040.81;6311398;22;44760;-83
2024/03/14 07:16:16;;;;;;;;;0.00;0.00;;;;;13.28;100.00;101041.38;6317588;22;44529;-83
2024/03/14 07:18:41;;;;;;;;;0.00;0.00;;;;;13.34;100.00;101043.81;6319589;22;44687;-83
2024/03/14 07:21:06;;;;;;;;;0.00;0.00;;;;;13.40;100.00;101046.22;6255102;22;44568;-83
2024/03/14 07:23:35;;;;;;;;;0.00;0.00;;;;;13.45;100.00;101043.44;6303676;22;53084;-83
2024/03/14 07:26:05;;;;;;;;;0.00;0.00;;;;;13.59;100.00;101040.31;6279130;22;45109;-83
2024/03/14 07:28:31;;;;;;;;;0.00;0.00;;;;;13.87;100.00;101040.13;6309161;22;44999;-84
2024/03/14 07:30:58;;;;;;;;;0.00;0.00;;;;;13.84;100.00;101046.34;6307932;22;44990;-83
2024/03/14 07:33:25;;;;;;;;;0.00;0.00;;;;;13.93;100.00;101043.38;6315392;22;44980;-84
2024/03/14 07:35:54;;;;;;;;;0.00;0.00;;;;;13.73;100.00;101043.28;6296579;22;44403;-85
2024/03/14 07:38:27;;;;;;;;;0.00;0.00;;;;;13.73;100.00;101035.44;6322411;22;44167;-81
2024/03/14 07:40:52;;;;;;;;;0.00;0.00;;;;;13.70;100.00;101030.31;6311156;22;44627;-83
2024/03/14 07:43:21;;;;;;;;;0.00;0.00;;;;;13.78;100.00;101032.63;6312015;22;46851;-82
2024/03/14 07:45:49;;;;;;;;;0.00;0.00;;;;;13.84;100.00;101043.72;6329275;22;44061;-81
2024/03/14 07:48:21;;;;;;;;;0.00;0.00;;;;;13.89;100.00;101038.31;6324188;22;43620;-83
2024/03/14 07:50:50;;;;;;;;;0.00;0.00;;;;;14.00;100.00;101038.75;6303086;22;38989;-83
2024/03/14 07:53:18;;;;;;;;;0.00;0.00;;;;;14.05;100.00;101036.81;6298672;22;32309;-83
2024/03/14 07:55:43;;;;;;;;;0.00;0.00;;;;;14.30;100.00;101038.47;6299368;22;36505;-80
2024/03/14 07:58:08;;;;;;;;;0.00;0.00;;;;;14.46;100.00;101038.72;6325294;22;41489;-81
2024/03/14 08:00:34;;;;;;;;;0.00;0.00;;;;;14.55;100.00;101037.50;6324290;22;42604;-81
2024/03/14 08:03:00;;;;;;;;;1.00;1.00;;;;;14.63;100.00;101038.06;6296061;22;43704;-81
2024/03/14 08:05:31;;;;;;;;;0.00;0.00;;;;;14.73;100.00;101041.16;6289172;22;28059;-82
2024/03/14 08:07:57;;;;;;;;;0.00;0.00;;;;;14.78;100.00;101031.34;6320383;22;28582;-81
2024/03/14 08:10:23;;;;;;;;;0.00;0.00;;;;;14.87;100.00;101031.78;6295171;22;28518;-82
2024/03/14 08:12:48;;;;;;;;;0.00;0.00;;;;;14.85;100.00;101024.94;6323593;22;41091;-81
2024/03/14 08:15:16;;;;;;;;;0.00;0.00;;;;;14.95;100.00;101022.75;6336950;22;27790;-82
2024/03/14 08:17:44;;;;;;;;;1.00;1.00;;;;;14.95;100.00;101028.88;6270087;22;28846;-82
2024/03/14 08:20:15;;;;;;;;;0.00;0.00;;;;;14.97;100.00;101024.41;6295961;22;34923;-81
2024/03/14 08:22:43;;;;;;;;;0.00;0.00;;;;;15.03;100.00;101036.41;6324537;22;36526;-81
2024/03/14 08:25:15;;;;;;;;;0.00;0.00;;;;;15.09;100.00;101025.66;6323712;22;27952;-81
2024/03/14 08:27:42;;;;;;;;;0.00;0.00;;;;;15.10;100.00;101028.22;6323497;22;28736;-81
2024/03/14 08:30:10;;;;;;;;;0.00;0.00;;;;;15.20;100.00;101033.91;6323406;22;29814;-83
2024/03/14 08:32:37;;;;;;;;;2.50;2.50;;;;;15.26;100.00;101020.50;6269151;22;29331;-82
2024/03/14 08:35:03;;;;;;;;;0.00;0.00;;;;;15.31;100.00;101022.09;6321919;22;27826;-81
2024/03/14 08:37:30;;;;;;;;;0.00;0.00;;;;;15.19;100.00;101028.72;6325023;22;29101;-80
2024/03/14 08:39:55;;;;;;;;;0.00;0.00;;;;;15.25;100.00;101026.69;6321612;22;34936;-83
2024/03/14 08:42:31;;;;;;;;;0.00;0.00;;;;;15.24;100.00;101022.34;6323786;22;28379;-81
2024/03/14 08:45:01;;;;;;;;;0.00;0.00;;;;;15.36;100.00;101014.84;6272073;22;29493;-78
2024/03/14 08:47:27;;;;;;;;;0.00;0.00;;;;;15.41;100.00;101012.88;6324944;22;28412;-80
2024/03/14 08:49:52;;;;;;;;;0.00;0.00;;;;;15.53;100.00;101011.50;6295477;22;28398;-79
2024/03/14 08:52:21;;;;;;;;;0.00;0.00;;;;;15.53;100.00;101017.59;6321518;22;29009;-79
2024/03/14 08:54:47;;;;;;;;;0.00;0.00;;;;;15.62;100.00;101014.56;6295983;22;28288;-77
2024/03/14 08:57:18;;;;;;;;;0.00;0.00;;;;;15.61;100.00;101020.72;6323567;22;31701;-78
2024/03/14 08:59:43;;;;;;;;;0.00;0.00;;;;;15.82;100.00;101005.81;6322559;22;28380;-78
2024/03/14 09:02:09;;;;;;;;;0.00;0.00;;;;;15.81;100.00;101014.59;6323380;22;42534;-80
2024/03/14 09:04:35;;;;;;;;;0.00;0.00;;;;;15.83;100.00;101014.53;6323228;22;29021;-81
2024/03/14 09:07:01;;;;;;;;;0.00;0.00;;;;;15.84;100.00;101001.31;6296730;22;32931;-80
2024/03/14 09:09:35;;;;;;;;;0.00;0.00;;;;;15.99;100.00;101006.75;6326082;22;31815;-82
2024/03/14 09:12:13;;;;;;;;;0.00;0.00;;;;;16.05;100.00;101002.06;6326116;22;28630;-82
2024/03/14 09:14:42;;;;;;;;;0.00;0.00;;;;;16.19;100.00;101006.66;6300006;22;28491;-82
2024/03/14 09:17:08;;;;;;;;;1.00;1.00;;;;;16.18;100.00;101002.34;6323748;22;28454;-80
2024/03/14 09:19:33;;;;;;;;;0.00;0.00;;;;;16.22;100.00;101006.53;6322589;22;28418;-81
2024/03/14 09:21:59;;;;;;;;;0.00;0.00;;;;;16.33;100.00;101002.53;6323054;22;37310;-82
2024/03/14 09:24:24;;;;;;;;;0.00;0.00;;;;;16.45;100.00;101013.28;6322260;22;28335;-83
2024/03/14 09:26:49;;;;;;;;;0.00;0.00;;;;;16.52;100.00;101007.72;6293981;22;28405;-83
2024/03/14 09:29:15;;;;;;;;;0.00;0.00;;;;;16.58;100.00;101004.78;6321405;22;27985;-82
2024/03/14 09:31:46;;;;;;;;;23.00;15.50;;;;;16.73;100.00;101001.38;6325360;22;28314;-83
2024/03/14 09:34:15;;;;;;;;;0.00;0.00;;;;;16.81;100.00;101003.66;6321775;22;28481;-83
2024/03/14 09:36:41;;;;;;;;;0.00;0.00;;;;;16.94;100.00;100998.66;6320333;22;28458;-83
2024/03/14 09:39:18;;;;;;;;;0.00;0.00;;;;;16.98;100.00;101008.06;6321410;22;28483;-83
2024/03/14 09:41:46;;;;;;;;;0.00;0.00;;;;;17.12;100.00;101007.34;6321003;22;28458;-83
2024/03/14 09:44:14;;;;;;;;;0.00;0.00;;;;;17.12;100.00;101010.81;6294500;22;27990;-84
2024/03/14 09:46:51;;;;;;;;;0.00;0.00;;;;;17.23;100.00;100999.75;6321589;22;28644;-83
2024/03/14 09:49:18;;;;;;;;;0.00;0.00;;;;;17.29;100.00;100993.31;6294976;22;28448;-83
2024/03/14 09:51:47;;;;;;;;;0.00;0.00;;;;;17.37;100.00;100988.50;6294676;22;28499;-83
2024/03/14 09:54:16;;;;;;;;;13.50;13.50;;;;;17.43;100.00;100990.78;6324172;22;28530;-82
2024/03/14 09:56:41;;;;;;;;;0.00;0.00;;;;;17.51;100.00;100993.84;6322449;22;28528;-82
2024/03/14 09:59:09;;;;;;;;;0.00;0.00;;;;;17.64;100.00;100990.56;6296100;22;28473;-82
2024/03/14 10:01:40;;;;;;;;;0.00;0.00;;;;;17.78;100.00;100982.78;6322550;22;28489;-81
2024/03/14 10:04:10;;;;;;;;;0.00;0.00;;;;;17.90;100.00;100982.09;6269173;22;28739;-80
2024/03/14 10:06:40;;;;;;;;;0.00;0.00;;;;;18.05;100.00;100972.50;6322304;22;28439;-79
2024/03/14 10:09:11;;;;;;;;;0.00;0.00;;;;;18.05;100.00;100975.13;6324090;22;28521;-80
2024/03/14 10:11:38;;;;;;;;;0.00;0.00;;;;;18.05;100.00;100971.66;6295193;22;30774;-80
2024/03/14 10:14:16;;;;;;;;;0.00;0.00;;;;;18.13;100.00;100970.28;6295989;22;28346;-80
2024/03/14 10:16:43;;;;;;;;;0.00;0.00;;;;;18.19;100.00;100959.38;6298052;22;28449;-80
2024/03/14 10:19:08;;;;;;;;;0.00;0.00;;;;;18.31;100.00;100965.75;6323623;22;28597;-79
2024/03/14 10:21:34;;;;;;;;;0.00;0.00;;;;;18.49;100.00;100955.91;6322927;22;33815;-80
2024/03/14 10:23:59;;;;;;;;;0.00;0.00;;;;;18.63;100.00;100956.88;6322616;22;48991;-81
2024/03/14 10:26:24;;;;;;;;;0.00;0.00;;;;;18.89;100.00;100950.13;6323005;22;28404;-80
2024/03/14 10:28:50;;;;;;;;;0.00;0.00;;;;;19.01;100.00;100946.72;6321489;22;47557;-79
2024/03/14 10:31:15;;;;;;;;;0.00;0.00;;;;;19.05;100.00;100940.28;6323172;22;30405;-81
2024/03/14 10:33:41;;;;;;;;;0.00;0.00;;;;;19.29;100.00;100934.44;6320971;22;50790;-79
2024/03/14 10:36:10;;;;;;;;;0.00;0.00;;;;;19.50;100.00;100934.88;6294046;22;28427;-79
2024/03/14 10:38:38;;;;;;;;;0.00;0.00;;;;;19.61;100.00;100935.03;6294606;22;28495;-80
2024/03/14 10:41:05;;;;;;;;;3.00;3.00;;;;;19.80;100.00;100932.13;6321760;22;29265;-80
2024/03/14 10:43:37;;;;;;;;;0.00;0.00;;;;;19.98;100.00;100921.31;6295318;22;28449;-80
2024/03/14 10:46:04;;;;;;;;;0.00;0.00;;;;;20.06;100.00;100924.31;6268395;22;28397;-80
2024/03/14 10:48:29;;;;;;;;;0.00;0.00;;;;;20.21;100.00;100912.72;6294830;22;28688;-80
2024/03/14 10:50:57;;;;;;;;;0.00;0.00;;;;;20.28;100.00;100915.78;6294161;22;54316;-81
2024/03/14 10:53:24;;;;;;;;;0.00;0.00;;;;;20.42;100.00;100920.16;6293947;22;28507;-80
2024/03/14 10:55:51;;;;;;;;;0.00;0.00;;;;;20.57;100.00;100916.44;6293323;22;28403;-80
2024/03/14 10:58:18;;;;;;;;;1.00;1.00;;;;;20.61;100.00;100914.47;6293828;22;28349;-81
2024/03/14 11:00:44;;;;;;;;;0.00;0.00;;;;;20.93;100.00;100911.41;6295286;22;28526;-82
2024/03/14 11:03:17;;;;;;;;;0.00;0.00;;;;;21.13;100.00;100907.38;6294933;22;28451;-83
2024/03/14 11:05:45;;;;;;;;;0.00;0.00;;;;;21.31;100.00;100910.53;6322857;22;28423;-84
2024/03/14 11:08:11;;;;;;;;;0.00;0.00;;;;;21.53;100.00;100905.41;6292864;22;28543;-83
2024/03/14 11:10:37;;;;;;;;;0.00;0.00;;;;;21.69;100.00;100898.97;6267612;22;40495;-83
2024/03/14 11:13:05;;;;;;;;;0.00;0.00;;;;;22.02;100.00;100903.59;6269169;22;39885;-83
2024/03/14 11:15:36;;;;;;;;;0.00;0.00;;;;;22.19;100.00;100897.00;6323029;22;28357;-84
2024/03/14 11:18:05;;;;;;;;;0.00;0.00;;;;;22.14;100.00;100893.84;6295622;22;28743;-83